Time;durP1;ratioP1;P1;durP2;ratioP2;P2;SDS_P1;SDS_P2;PMS_P1;PMS_P2;Temp;Humidity;BMP_temperature;BMP_pressure;BME280_temperature;BME280_humidity;BME280_pressure;Samples;Min_cycle;Max_cycle;Signal;HPM_P1;HPM_P2
2022/01/07 00:00:54;;;;;;;71.72;10.63;;;;;;;;;;5059638;28;20753;-65
2022/01/07 00:03:22;;;;;;;72.15;10.70;;;;;;;;;;5080879;28;20681;-65
2022/01/07 00:05:49;;;;;;;71.63;11.43;;;;;;;;;;5080184;28;20209;-64
2022/01/07 00:08:16;;;;;;;71.47;12.75;;;;;;;;;;5079394;28;20749;-66
2022/01/07 00:10:43;;;;;;;74.03;11.52;;;;;;;;;;5080046;28;20300;-64
2022/01/07 00:13:12;;;;;;;69.32;11.73;;;;;;;;;;5079172;28;20210;-65
2022/01/07 00:15:40;;;;;;;71.80;12.68;;;;;;;;;;5079303;28;20222;-65
2022/01/07 00:18:07;;;;;;;71.95;11.05;;;;;;;;;;5077977;28;20288;-64
2022/01/07 00:20:35;;;;;;;70.25;11.32;;;;;;;;;;5078277;28;20279;-65
2022/01/07 00:23:02;;;;;;;72.65;11.60;;;;;;;;;;5078966;28;20312;-64
2022/01/07 00:25:29;;;;;;;73.43;13.45;;;;;;;;;;5079126;28;20202;-65
2022/01/07 00:27:56;;;;;;;71.03;11.13;;;;;;;;;;5078404;28;20229;-64
2022/01/07 00:30:25;;;;;;;70.28;10.98;;;;;;;;;;5079210;28;20228;-64
2022/01/07 00:32:53;;;;;;;71.03;11.45;;;;;;;;;;5071989;28;20209;-65
2022/01/07 00:35:20;;;;;;;69.55;10.77;;;;;;;;;;5058867;28;20799;-65
2022/01/07 00:37:48;;;;;;;71.18;11.60;;;;;;;;;;5058277;28;20630;-65
2022/01/07 00:40:16;;;;;;;76.03;10.68;;;;;;;;;;5058377;28;20212;-65
2022/01/07 00:42:43;;;;;;;68.82;10.90;;;;;;;;;;5057785;28;20322;-65
2022/01/07 00:45:11;;;;;;;69.70;11.38;;;;;;;;;;5058053;28;20234;-65
2022/01/07 00:47:39;;;;;;;73.43;12.68;;;;;;;;;;5058496;28;20212;-64
2022/01/07 00:50:07;;;;;;;67.55;11.05;;;;;;;;;;5058715;28;20216;-64
2022/01/07 00:52:34;;;;;;;68.60;11.60;;;;;;;;;;5058942;28;20230;-64
2022/01/07 00:55:02;;;;;;;70.35;10.93;;;;;;;;;;5059058;28;20226;-65
2022/01/07 00:57:29;;;;;;;70.22;11.68;;;;;;;;;;5057825;28;20293;-65
2022/01/07 00:59:56;;;;;;;67.95;10.27;;;;;;;;;;5058496;28;20293;-64
2022/01/07 01:02:23;;;;;;;75.00;11.98;;;;;;;;;;5058067;28;20226;-65
2022/01/07 01:04:51;;;;;;;66.72;10.32;;;;;;;;;;5055285;28;20593;-64
2022/01/07 01:07:19;;;;;;;74.95;12.13;;;;;;;;;;5056961;28;20210;-65
2022/01/07 01:09:46;;;;;;;71.55;12.07;;;;;;;;;;5058076;28;20601;-65
2022/01/07 01:12:13;;;;;;;73.80;12.15;;;;;;;;;;5058075;28;20313;-65
2022/01/07 01:14:40;;;;;;;76.13;13.63;;;;;;;;;;5057495;28;20298;-65
2022/01/07 01:17:08;;;;;;;74.88;11.93;;;;;;;;;;5062871;28;20270;-64
2022/01/07 01:19:35;;;;;;;72.47;12.20;;;;;;;;;;5064822;28;20214;-65
2022/01/07 01:22:04;;;;;;;71.30;11.40;;;;;;;;;;5065750;28;20281;-64
2022/01/07 01:24:31;;;;;;;66.90;10.15;;;;;;;;;;5066049;28;20238;-65
2022/01/07 01:26:58;;;;;;;69.63;10.10;;;;;;;;;;5066872;28;20226;-64
2022/01/07 01:29:26;;;;;;;69.82;11.18;;;;;;;;;;5067068;28;20222;-65
2022/01/07 01:31:53;;;;;;;67.50;10.18;;;;;;;;;;5067714;28;20230;-65
2022/01/07 01:34:20;;;;;;;74.10;11.38;;;;;;;;;;5067014;28;20225;-64
2022/01/07 01:36:47;;;;;;;69.72;11.13;;;;;;;;;;5064160;28;20798;-64
2022/01/07 01:39:16;;;;;;;69.82;10.38;;;;;;;;;;5066380;28;20209;-64
2022/01/07 01:41:44;;;;;;;70.05;9.93;;;;;;;;;;5065745;28;20226;-64
2022/01/07 01:44:11;;;;;;;67.97;10.25;;;;;;;;;;5065956;28;20312;-65
2022/01/07 01:46:38;;;;;;;68.57;9.07;;;;;;;;;;5058469;28;20198;-64
2022/01/07 01:49:05;;;;;;;67.55;10.68;;;;;;;;;;5057709;28;20269;-65
2022/01/07 01:51:33;;;;;;;72.57;11.30;;;;;;;;;;5057369;28;20230;-64
2022/01/07 01:54:00;;;;;;;69.00;10.30;;;;;;;;;;5057139;28;20212;-64
2022/01/07 01:56:28;;;;;;;68.93;10.98;;;;;;;;;;5056777;28;20314;-65
2022/01/07 01:58:55;;;;;;;72.95;11.10;;;;;;;;;;5055604;28;20539;-65
2022/01/07 02:01:23;;;;;;;68.78;10.02;;;;;;;;;;5058231;28;20236;-65
2022/01/07 02:03:50;;;;;;;66.50;9.48;;;;;;;;;;5057626;28;20301;-64
2022/01/07 02:06:17;;;;;;;69.93;10.05;;;;;;;;;;5072981;28;20209;-65
2022/01/07 02:08:45;;;;;;;69.88;10.48;;;;;;;;;;5074497;28;20638;-65
2022/01/07 02:11:12;;;;;;;72.85;10.43;;;;;;;;;;5077095;28;20308;-65
2022/01/07 02:13:41;;;;;;;68.13;10.40;;;;;;;;;;5076927;28;20232;-65
2022/01/07 02:16:08;;;;;;;67.45;9.70;;;;;;;;;;5077104;28;20313;-65
2022/01/07 02:18:36;;;;;;;66.20;9.80;;;;;;;;;;5076535;28;20212;-65
2022/01/07 02:21:04;;;;;;;70.93;9.52;;;;;;;;;;5076140;28;20257;-65
2022/01/07 02:23:32;;;;;;;68.03;8.80;;;;;;;;;;5076702;28;20237;-66
2022/01/07 02:26:01;;;;;;;71.78;11.35;;;;;;;;;;5076339;28;20214;-65
2022/01/07 02:28:29;;;;;;;65.47;8.65;;;;;;;;;;5076149;28;20760;-65
2022/01/07 02:30:56;;;;;;;68.80;10.35;;;;;;;;;;5075763;28;20760;-65
2022/01/07 02:33:23;;;;;;;66.75;9.57;;;;;;;;;;5075162;28;20233;-65
2022/01/07 02:35:50;;;;;;;66.47;10.45;;;;;;;;;;5075874;28;20228;-65
2022/01/07 02:38:19;;;;;;;75.97;10.63;;;;;;;;;;5075660;28;20210;-65
2022/01/07 02:40:46;;;;;;;70.22;10.48;;;;;;;;;;5054335;28;20296;-65
2022/01/07 02:43:13;;;;;;;70.97;10.90;;;;;;;;;;5055309;28;20216;-65
2022/01/07 02:45:40;;;;;;;70.55;9.90;;;;;;;;;;5055402;28;20432;-65
2022/01/07 02:48:07;;;;;;;74.07;12.00;;;;;;;;;;5055200;28;20226;-65
2022/01/07 02:50:36;;;;;;;70.55;10.07;;;;;;;;;;5055793;28;20241;-66
2022/01/07 02:53:05;;;;;;;65.72;9.95;;;;;;;;;;5055068;28;20635;-65
2022/01/07 02:55:33;;;;;;;71.20;11.02;;;;;;;;;;5055101;28;20766;-65
2022/01/07 02:58:00;;;;;;;69.68;9.50;;;;;;;;;;5054812;28;20210;-65
2022/01/07 03:00:28;;;;;;;68.82;10.15;;;;;;;;;;5055411;28;20296;-64
2022/01/07 03:02:56;;;;;;;69.68;10.07;;;;;;;;;;5054948;28;20305;-65
2022/01/07 03:05:23;;;;;;;68.60;9.82;;;;;;;;;;5055199;28;20686;-65
2022/01/07 03:07:51;;;;;;;70.40;10.23;;;;;;;;;;5054997;28;20587;-65
2022/01/07 03:10:19;;;;;;;68.00;10.73;;;;;;;;;;5053928;28;20274;-65
2022/01/07 03:12:47;;;;;;;71.40;10.52;;;;;;;;;;5074902;28;20321;-65
2022/01/07 03:15:15;;;;;;;70.35;10.15;;;;;;;;;;5074550;28;20238;-65
2022/01/07 03:17:43;;;;;;;66.43;9.43;;;;;;;;;;5075045;28;20284;-65
2022/01/07 03:20:11;;;;;;;71.57;10.18;;;;;;;;;;5074900;28;20208;-65
2022/01/07 03:22:38;;;;;;;66.80;9.07;;;;;;;;;;5074897;28;20316;-65
2022/01/07 03:25:06;;;;;;;67.43;10.38;;;;;;;;;;5074661;28;20312;-65
2022/01/07 03:27:33;;;;;;;67.72;10.02;;;;;;;;;;5074920;28;20236;-65
2022/01/07 03:30:02;;;;;;;65.63;9.52;;;;;;;;;;5075974;28;20659;-65
2022/01/07 03:32:29;;;;;;;71.78;10.70;;;;;;;;;;5075557;28;20312;-65
2022/01/07 03:34:57;;;;;;;69.90;10.00;;;;;;;;;;5076317;28;20244;-65
2022/01/07 03:37:24;;;;;;;72.50;10.18;;;;;;;;;;5075582;28;20360;-65
2022/01/07 03:39:52;;;;;;;67.38;10.50;;;;;;;;;;5075520;28;20654;-65
2022/01/07 03:42:19;;;;;;;67.95;8.93;;;;;;;;;;5067742;28;20229;-65
2022/01/07 03:44:46;;;;;;;67.97;10.10;;;;;;;;;;5055301;28;20233;-65
2022/01/07 03:47:15;;;;;;;76.95;10.38;;;;;;;;;;5055907;28;20213;-65
2022/01/07 03:49:42;;;;;;;67.32;10.00;;;;;;;;;;5054435;28;20241;-65
2022/01/07 03:52:09;;;;;;;64.13;9.02;;;;;;;;;;5053411;28;20226;-65
2022/01/07 03:54:36;;;;;;;69.60;8.75;;;;;;;;;;5054322;28;20209;-65
2022/01/07 03:57:03;;;;;;;68.90;9.38;;;;;;;;;;5053908;28;20226;-65
2022/01/07 03:59:32;;;;;;;68.85;9.73;;;;;;;;;;5053916;28;20217;-65
2022/01/07 04:01:59;;;;;;;68.63;10.80;;;;;;;;;;5053504;28;20238;-65
2022/01/07 04:04:27;;;;;;;68.82;10.55;;;;;;;;;;5053553;28;20658;-65
2022/01/07 04:06:54;;;;;;;69.13;9.63;;;;;;;;;;5054107;28;20242;-65
2022/01/07 04:09:22;;;;;;;70.47;9.93;;;;;;;;;;5053464;28;20287;-65
2022/01/07 04:11:49;;;;;;;66.95;9.20;;;;;;;;;;5053548;28;20269;-66
2022/01/07 04:14:16;;;;;;;67.43;9.70;;;;;;;;;;5052382;28;20289;-65
2022/01/07 04:16:43;;;;;;;66.63;9.40;;;;;;;;;;5054135;28;20229;-66
2022/01/07 04:19:10;;;;;;;67.68;10.18;;;;;;;;;;5053150;28;20678;-66
2022/01/07 04:21:39;;;;;;;67.43;9.40;;;;;;;;;;5055294;28;20222;-65
2022/01/07 04:24:06;;;;;;;65.70;8.95;;;;;;;;;;5057577;28;20206;-65
2022/01/07 04:26:33;;;;;;;69.85;10.55;;;;;;;;;;5057261;28;20209;-66
2022/01/07 04:29:00;;;;;;;68.03;11.02;;;;;;;;;;5057435;28;20289;-65
2022/01/07 04:31:28;;;;;;;67.65;9.40;;;;;;;;;;5057932;28;20228;-65
2022/01/07 04:33:55;;;;;;;68.18;9.00;;;;;;;;;;5057072;28;20300;-65
2022/01/07 04:36:22;;;;;;;69.30;9.90;;;;;;;;;;5057517;28;20222;-64
2022/01/07 04:38:50;;;;;;;67.38;10.23;;;;;;;;;;5056652;28;20209;-65
2022/01/07 04:41:18;;;;;;;68.10;10.30;;;;;;;;;;5057083;28;20740;-65
2022/01/07 04:43:45;;;;;;;67.70;9.98;;;;;;;;;;5057769;28;20202;-65
2022/01/07 04:46:12;;;;;;;74.57;10.60;;;;;;;;;;5072424;28;20211;-64
2022/01/07 04:48:40;;;;;;;72.65;10.13;;;;;;;;;;5077363;28;20296;-66
2022/01/07 04:51:07;;;;;;;70.70;11.77;;;;;;;;;;5077072;28;20228;-65
2022/01/07 04:53:34;;;;;;;71.90;10.75;;;;;;;;;;5076268;28;20677;-65
2022/01/07 04:56:02;;;;;;;69.22;9.85;;;;;;;;;;5077029;28;20687;-65
2022/01/07 04:58:30;;;;;;;68.80;10.20;;;;;;;;;;5076788;28;20233;-65
2022/01/07 05:00:57;;;;;;;67.47;9.10;;;;;;;;;;5076806;28;20226;-65
2022/01/07 05:03:24;;;;;;;67.53;10.40;;;;;;;;;;5076604;28;20232;-65
2022/01/07 05:06:02;;;;;;;70.10;11.02;;;;;;;;;;5076161;28;20305;-64
2022/01/07 05:08:29;;;;;;;71.20;9.60;;;;;;;;;;5076777;28;20209;-65
2022/01/07 05:10:56;;;;;;;70.40;9.63;;;;;;;;;;5076354;28;20229;-65
2022/01/07 05:13:25;;;;;;;67.47;9.52;;;;;;;;;;5076056;28;20647;-65
2022/01/07 05:15:52;;;;;;;70.85;10.15;;;;;;;;;;5074038;28;20652;-65
2022/01/07 05:18:19;;;;;;;70.47;10.45;;;;;;;;;;5076187;28;20225;-65
2022/01/07 05:20:48;;;;;;;70.82;9.57;;;;;;;;;;5076299;28;20297;-65
2022/01/07 05:23:15;;;;;;;69.57;10.48;;;;;;;;;;5086079;28;20213;-65
2022/01/07 05:25:42;;;;;;;69.53;10.73;;;;;;;;;;5088576;28;20202;-64
2022/01/07 05:28:09;;;;;;;68.65;9.82;;;;;;;;;;5088700;28;20272;-65
2022/01/07 05:30:38;;;;;;;66.75;9.85;;;;;;;;;;5089552;28;20269;-65
2022/01/07 05:33:05;;;;;;;69.45;9.63;;;;;;;;;;5088683;28;20265;-65
2022/01/07 05:35:32;;;;;;;66.00;9.73;;;;;;;;;;5088603;28;20236;-64
2022/01/07 05:37:59;;;;;;;67.85;9.50;;;;;;;;;;5089006;28;20225;-65
2022/01/07 05:40:26;;;;;;;72.05;10.10;;;;;;;;;;5088223;28;20270;-65
2022/01/07 05:42:53;;;;;;;68.50;9.60;;;;;;;;;;5088085;28;20273;-64
2022/01/07 05:45:20;;;;;;;75.65;10.77;;;;;;;;;;5080341;28;20696;-67
2022/01/07 05:47:49;;;;;;;74.22;11.00;;;;;;;;;;5075241;28;20194;-66
2022/01/07 05:50:16;;;;;;;70.47;11.98;;;;;;;;;;5087031;28;20205;-63
2022/01/07 05:52:43;;;;;;;70.80;10.90;;;;;;;;;;5089921;28;20229;-64
2022/01/07 05:55:10;;;;;;;71.50;10.65;;;;;;;;;;5089021;28;20225;-65
2022/01/07 05:57:38;;;;;;;73.57;11.77;;;;;;;;;;5089345;28;20592;-64
2022/01/07 06:00:06;;;;;;;71.10;10.63;;;;;;;;;;5090805;28;20245;-66
2022/01/07 06:02:33;;;;;;;74.00;10.95;;;;;;;;;;5088728;28;20300;-64
2022/01/07 06:05:01;;;;;;;69.22;10.25;;;;;;;;;;5090657;28;20233;-64
2022/01/07 06:07:29;;;;;;;72.55;11.27;;;;;;;;;;5090083;28;20228;-64
2022/01/07 06:09:56;;;;;;;79.65;12.52;;;;;;;;;;5091796;28;20225;-64
2022/01/07 06:12:23;;;;;;;74.53;12.43;;;;;;;;;;5091039;28;20229;-64
2022/01/07 06:14:50;;;;;;;73.90;11.90;;;;;;;;;;5090976;28;20293;-63
2022/01/07 06:17:18;;;;;;;73.60;13.48;;;;;;;;;;5090889;28;20221;-64
2022/01/07 06:19:45;;;;;;;74.25;11.80;;;;;;;;;;5090171;28;20213;-64
2022/01/07 06:22:14;;;;;;;73.45;11.02;;;;;;;;;;5090963;28;20267;-64
2022/01/07 06:24:41;;;;;;;77.10;13.02;;;;;;;;;;5090931;28;20237;-65
2022/01/07 06:27:08;;;;;;;74.55;12.88;;;;;;;;;;5090023;28;20285;-65
2022/01/07 06:29:35;;;;;;;75.10;10.90;;;;;;;;;;5090562;28;20206;-64
2022/01/07 06:32:02;;;;;;;72.43;12.13;;;;;;;;;;5089969;28;20252;-64
2022/01/07 06:34:29;;;;;;;75.90;13.50;;;;;;;;;;5091680;28;20264;-64
2022/01/07 06:36:58;;;;;;;72.78;11.60;;;;;;;;;;5086000;28;20245;-65
2022/01/07 06:39:29;;;;;;;75.35;14.07;;;;;;;;;;5086749;28;20212;-65
2022/01/07 06:41:57;;;;;;;73.00;11.10;;;;;;;;;;5075841;28;20276;-65
2022/01/07 06:44:24;;;;;;;78.05;11.55;;;;;;;;;;5074206;28;20212;-65
2022/01/07 06:46:51;;;;;;;74.25;11.30;;;;;;;;;;5075011;28;20204;-64
2022/01/07 06:49:19;;;;;;;76.32;13.07;;;;;;;;;;5074727;28;20254;-65
2022/01/07 06:51:46;;;;;;;71.78;12.70;;;;;;;;;;5076042;28;20411;-65
2022/01/07 06:54:13;;;;;;;72.93;11.68;;;;;;;;;;5075156;28;20497;-65
2022/01/07 06:56:42;;;;;;;72.40;12.50;;;;;;;;;;5075162;28;20202;-65
2022/01/07 06:59:12;;;;;;;76.72;12.32;;;;;;;;;;5075038;28;20297;-65
2022/01/07 07:01:39;;;;;;;68.57;10.18;;;;;;;;;;5075383;28;20733;-65
2022/01/07 07:04:06;;;;;;;79.70;10.82;;;;;;;;;;5075154;28;20566;-65
2022/01/07 07:06:34;;;;;;;72.85;12.52;;;;;;;;;;5075222;28;20220;-65
2022/01/07 07:09:01;;;;;;;79.57;13.00;;;;;;;;;;5074842;28;20292;-65
2022/01/07 07:11:28;;;;;;;71.30;11.00;;;;;;;;;;5075262;28;20621;-65
2022/01/07 07:13:57;;;;;;;70.90;12.32;;;;;;;;;;5075084;28;20225;-65
2022/01/07 07:16:24;;;;;;;71.55;11.25;;;;;;;;;;5075343;28;20201;-65
2022/01/07 07:18:51;;;;;;;70.25;10.40;;;;;;;;;;5074956;28;20230;-65
2022/01/07 07:21:19;;;;;;;70.57;11.45;;;;;;;;;;5075217;28;20263;-65
2022/01/07 07:23:46;;;;;;;68.80;9.73;;;;;;;;;;5075519;28;20296;-65
2022/01/07 07:26:13;;;;;;;71.43;10.82;;;;;;;;;;5075776;28;20206;-65
2022/01/07 07:28:40;;;;;;;74.50;10.00;;;;;;;;;;5075104;28;20237;-65
2022/01/07 07:31:12;;;;;;;69.85;10.05;;;;;;;;;;5076008;28;20312;-65
2022/01/07 07:34:12;;;;;;;68.30;9.90;;;;;;;;;;5077139;28;20231;-65
2022/01/07 07:36:40;;;;;;;68.80;10.10;;;;;;;;;;5076987;28;20202;-65
2022/01/07 07:39:08;;;;;;;68.82;9.70;;;;;;;;;;5077152;28;20210;-65
2022/01/07 07:41:36;;;;;;;70.80;9.15;;;;;;;;;;5076704;28;20313;-65
2022/01/07 07:44:04;;;;;;;65.28;8.20;;;;;;;;;;5076970;28;20225;-65
2022/01/07 07:46:33;;;;;;;67.40;9.65;;;;;;;;;;5077745;28;20209;-65
2022/01/07 07:49:01;;;;;;;65.68;8.90;;;;;;;;;;5076964;28;20234;-65
2022/01/07 07:51:28;;;;;;;66.10;7.95;;;;;;;;;;5077535;28;20261;-65
2022/01/07 07:53:55;;;;;;;67.93;10.02;;;;;;;;;;5080083;28;20707;-65
2022/01/07 07:56:23;;;;;;;66.25;8.15;;;;;;;;;;5080841;28;20244;-66
2022/01/07 07:58:50;;;;;;;65.90;8.52;;;;;;;;;;5083651;28;20784;-65
2022/01/07 08:01:18;;;;;;;68.45;10.07;;;;;;;;;;5083988;28;20221;-65
2022/01/07 08:03:47;;;;;;;64.05;8.25;;;;;;;;;;5082966;28;20206;-65
2022/01/07 08:06:14;;;;;;;67.85;9.02;;;;;;;;;;5083169;28;20316;-65
2022/01/07 08:08:41;;;;;;;67.65;8.90;;;;;;;;;;5081845;28;20197;-65
2022/01/07 08:11:11;;;;;;;66.18;8.63;;;;;;;;;;5082647;28;20256;-65
2022/01/07 08:16:26;;;;;;;66.15;8.43;;;;;;;;;;5065124;28;20197;-65
2022/01/07 08:18:55;;;;;;;66.97;9.57;;;;;;;;;;5082144;28;20236;-65
2022/01/07 08:21:24;;;;;;;64.78;8.20;;;;;;;;;;5082422;28;20228;-65
2022/01/07 08:23:51;;;;;;;64.90;7.35;;;;;;;;;;5082948;28;20240;-65
2022/01/07 08:26:19;;;;;;;68.25;8.95;;;;;;;;;;5082591;28;20297;-64
2022/01/07 08:28:50;;;;;;;65.35;8.50;;;;;;;;;;5082254;28;20761;-65
2022/01/07 08:34:53;;;;;;;65.07;9.23;;;;;;;;;;5081974;28;20293;-65
2022/01/07 08:37:02;;;;;;;65.03;8.43;;;;;;;;;;5081922;28;20638;-66
2022/01/07 08:39:29;;;;;;;65.75;7.85;;;;;;;;;;5077643;28;20209;-67
2022/01/07 08:41:56;;;;;;;69.97;9.07;;;;;;;;;;5078867;28;20268;-64
2022/01/07 08:44:26;;;;;;;69.80;8.70;;;;;;;;;;5081599;28;20296;-65
2022/01/07 08:46:53;;;;;;;67.43;8.73;;;;;;;;;;5081278;28;20209;-65
2022/01/07 08:49:22;;;;;;;71.38;8.27;;;;;;;;;;5080349;28;20201;-66
2022/01/07 08:51:49;;;;;;;64.25;8.65;;;;;;;;;;5080575;28;20603;-65
2022/01/07 08:54:16;;;;;;;65.57;8.15;;;;;;;;;;5079340;28;20717;-65
2022/01/07 08:56:44;;;;;;;68.13;8.07;;;;;;;;;;5079350;28;20277;-65
2022/01/07 08:59:11;;;;;;;66.38;8.35;;;;;;;;;;5080607;28;20233;-65
2022/01/07 09:01:38;;;;;;;64.45;7.40;;;;;;;;;;5078491;28;20228;-64
2022/01/07 09:04:05;;;;;;;66.57;9.00;;;;;;;;;;5078802;28;20201;-65
2022/01/07 09:06:34;;;;;;;68.38;6.75;;;;;;;;;;5078660;28;20241;-65
2022/01/07 09:09:01;;;;;;;65.68;8.85;;;;;;;;;;5079628;28;20202;-64
2022/01/07 09:11:28;;;;;;;67.22;7.90;;;;;;;;;;5080802;28;20236;-65
2022/01/07 09:13:58;;;;;;;65.68;7.35;;;;;;;;;;5080344;28;20206;-65
2022/01/07 09:16:26;;;;;;;64.40;7.68;;;;;;;;;;5076535;28;20633;-65
2022/01/07 09:18:53;;;;;;;64.20;8.35;;;;;;;;;;5077848;28;20225;-66
2022/01/07 09:21:20;;;;;;;65.45;7.97;;;;;;;;;;5078052;28;20232;-65
2022/01/07 09:23:49;;;;;;;67.40;7.38;;;;;;;;;;5077436;28;20217;-66
2022/01/07 09:26:16;;;;;;;66.40;7.78;;;;;;;;;;5076552;28;20615;-65
2022/01/07 09:28:43;;;;;;;65.93;8.48;;;;;;;;;;5076743;28;20237;-68
2022/01/07 09:31:11;;;;;;;64.18;8.40;;;;;;;;;;5075696;28;20706;-66
2022/01/07 09:33:38;;;;;;;66.50;9.27;;;;;;;;;;5076788;28;20201;-68
2022/01/07 09:36:06;;;;;;;72.22;9.40;;;;;;;;;;5076922;28;20263;-66
2022/01/07 09:38:33;;;;;;;72.20;10.40;;;;;;;;;;5076146;28;20225;-65
2022/01/07 09:41:01;;;;;;;71.70;9.70;;;;;;;;;;5076509;28;20706;-66
2022/01/07 09:43:29;;;;;;;66.00;9.05;;;;;;;;;;5076358;28;20205;-66
2022/01/07 09:45:56;;;;;;;67.43;9.23;;;;;;;;;;5076645;28;20206;-66
2022/01/07 09:48:23;;;;;;;69.03;9.13;;;;;;;;;;5076113;28;20670;-66
2022/01/07 09:50:50;;;;;;;69.15;9.45;;;;;;;;;;5075871;28;20324;-66
2022/01/07 09:53:18;;;;;;;66.32;9.25;;;;;;;;;;5076149;28;20697;-66
2022/01/07 09:55:46;;;;;;;67.55;8.18;;;;;;;;;;5076820;28;20210;-66
2022/01/07 09:58:14;;;;;;;65.65;8.05;;;;;;;;;;5076622;28;20232;-66
2022/01/07 10:00:42;;;;;;;64.80;7.85;;;;;;;;;;5076588;28;20578;-66
2022/01/07 10:03:11;;;;;;;66.18;8.95;;;;;;;;;;5075903;28;20745;-66
2022/01/07 10:05:42;;;;;;;65.30;9.13;;;;;;;;;;5076148;28;20299;-68
2022/01/07 10:08:23;;;;;;;65.57;8.90;;;;;;;;;;5075498;28;20237;-65
2022/01/07 10:11:05;;;;;;;63.75;7.85;;;;;;;;;;5075311;28;20221;-66
2022/01/07 10:13:33;;;;;;;69.68;9.82;;;;;;;;;;5076010;28;20240;-67
2022/01/07 10:16:13;;;;;;;66.20;8.88;;;;;;;;;;5075081;28;20216;-66
2022/01/07 10:18:41;;;;;;;64.75;9.85;;;;;;;;;;5074050;28;20235;-66
2022/01/07 10:21:09;;;;;;;66.88;8.98;;;;;;;;;;5075258;28;20221;-67
2022/01/07 10:23:36;;;;;;;69.68;8.05;;;;;;;;;;5074678;28;20747;-66
2022/01/07 10:26:03;;;;;;;65.85;7.30;;;;;;;;;;5073796;28;20202;-65
2022/01/07 10:28:31;;;;;;;66.88;8.60;;;;;;;;;;5073376;28;20208;-66
2022/01/07 10:31:00;;;;;;;73.40;8.90;;;;;;;;;;5074414;28;20292;-67
2022/01/07 10:33:28;;;;;;;63.90;8.43;;;;;;;;;;5074245;28;20749;-66
2022/01/07 10:35:56;;;;;;;64.35;8.00;;;;;;;;;;5075045;28;20216;-67
2022/01/07 10:38:24;;;;;;;64.53;7.80;;;;;;;;;;5082024;28;20221;-66
2022/01/07 10:40:52;;;;;;;65.68;9.27;;;;;;;;;;5087163;28;20236;-66
2022/01/07 10:43:19;;;;;;;66.78;8.45;;;;;;;;;;5088278;28;20272;-66
2022/01/07 10:45:49;;;;;;;62.70;7.40;;;;;;;;;;5088112;28;20241;-66
2022/01/07 10:48:18;;;;;;;66.15;8.32;;;;;;;;;;5088441;28;20711;-66
2022/01/07 10:50:46;;;;;;;64.55;8.15;;;;;;;;;;5088642;28;20233;-66
2022/01/07 10:53:31;;;;;;;67.63;9.35;;;;;;;;;;5087823;28;20274;-66
2022/01/07 10:56:00;;;;;;;65.30;7.60;;;;;;;;;;5088867;28;20260;-66
2022/01/07 10:58:28;;;;;;;64.72;8.25;;;;;;;;;;5087751;28;20232;-67
2022/01/07 11:00:55;;;;;;;66.07;7.72;;;;;;;;;;5089043;28;20292;-67
2022/01/07 11:03:24;;;;;;;67.65;8.82;;;;;;;;;;5088348;28;20205;-66
2022/01/07 11:05:51;;;;;;;65.15;7.72;;;;;;;;;;5089597;28;20220;-66
2022/01/07 11:08:18;;;;;;;66.20;8.48;;;;;;;;;;5088561;28;20233;-66
2022/01/07 11:10:45;;;;;;;65.13;8.40;;;;;;;;;;5086538;28;20205;-66
2022/01/07 11:13:13;;;;;;;67.32;7.80;;;;;;;;;;5087670;28;20217;-66
2022/01/07 11:15:40;;;;;;;69.60;8.18;;;;;;;;;;5086110;28;20241;-66
2022/01/07 11:18:07;;;;;;;64.63;8.10;;;;;;;;;;5085122;28;20720;-65
2022/01/07 11:20:36;;;;;;;66.57;8.30;;;;;;;;;;5085315;28;20277;-66
2022/01/07 11:23:03;;;;;;;64.35;7.38;;;;;;;;;;5087816;28;20225;-66
2022/01/07 11:25:32;;;;;;;88.57;19.48;;;;;;;;;;5085537;28;20213;-66
2022/01/07 11:28:00;;;;;;;69.70;9.38;;;;;;;;;;5075839;28;20238;-66
2022/01/07 11:30:32;;;;;;;81.15;18.13;;;;;;;;;;5067285;28;20210;-65
2022/01/07 11:32:59;;;;;;;71.47;10.90;;;;;;;;;;5068222;28;20202;-66
2022/01/07 11:35:45;;;;;;;69.75;9.45;;;;;;;;;;5068962;28;20229;-66
2022/01/07 11:38:30;;;;;;;70.85;10.25;;;;;;;;;;5069671;28;20214;-66
2022/01/07 11:40:59;;;;;;;73.53;11.02;;;;;;;;;;5063457;28;20222;-66
2022/01/07 11:43:31;;;;;;;79.13;13.93;;;;;;;;;;5071238;28;20230;-66
2022/01/07 11:45:58;;;;;;;73.45;11.05;;;;;;;;;;5073786;28;20252;-65
2022/01/07 11:48:27;;;;;;;70.20;9.88;;;;;;;;;;5073799;28;20220;-65
2022/01/07 11:51:10;;;;;;;68.32;9.40;;;;;;;;;;5073938;28;20261;-66
2022/01/07 11:53:56;;;;;;;76.05;10.75;;;;;;;;;;5072879;28;20206;-65
2022/01/07 11:56:26;;;;;;;68.65;8.93;;;;;;;;;;5062100;28;20212;-65
2022/01/07 11:58:55;;;;;;;65.45;8.60;;;;;;;;;;5059507;28;20233;-68
2022/01/07 12:01:26;;;;;;;67.28;8.52;;;;;;;;;;5065640;28;20317;-67
2022/01/07 12:03:54;;;;;;;69.13;9.05;;;;;;;;;;5074811;28;20193;-67
2022/01/07 12:06:46;;;;;;;72.40;10.48;;;;;;;;;;5074800;28;20245;-67
2022/01/07 12:09:19;;;;;;;69.53;9.25;;;;;;;;;;5064845;28;20205;-67
2022/01/07 12:11:54;;;;;;;66.05;9.80;;;;;;;;;;5074843;28;20230;-67
2022/01/07 12:14:22;;;;;;;72.68;8.93;;;;;;;;;;5069435;28;20212;-68
2022/01/07 12:16:51;;;;;;;71.15;9.00;;;;;;;;;;5056358;28;20206;-68
2022/01/07 12:19:52;;;;;;;72.30;10.05;;;;;;;;;;5056231;28;20232;-66
2022/01/07 12:22:20;;;;;;;68.00;8.82;;;;;;;;;;5054825;28;20225;-68
2022/01/07 12:24:49;;;;;;;70.68;8.85;;;;;;;;;;5055719;28;20203;-70
2022/01/07 12:27:20;;;;;;;81.90;10.60;;;;;;;;;;5056454;28;20214;-67
2022/01/07 12:29:48;;;;;;;68.80;8.80;;;;;;;;;;5063953;28;20206;-67
2022/01/07 12:32:18;;;;;;;69.88;9.40;;;;;;;;;;5075027;28;20283;-67
2022/01/07 12:34:46;;;;;;;71.90;9.50;;;;;;;;;;5074872;28;20256;-67
2022/01/07 12:37:14;;;;;;;70.47;9.75;;;;;;;;;;5075737;28;20210;-67
2022/01/07 12:39:42;;;;;;;70.05;9.60;;;;;;;;;;5074934;28;20217;-67
2022/01/07 12:42:10;;;;;;;68.90;10.48;;;;;;;;;;5074117;28;20235;-66
2022/01/07 12:44:40;;;;;;;64.80;7.85;;;;;;;;;;5074593;28;20209;-67
2022/01/07 12:47:08;;;;;;;70.05;9.10;;;;;;;;;;5075370;28;20220;-67
2022/01/07 12:49:38;;;;;;;66.20;9.18;;;;;;;;;;5075560;28;20604;-66
2022/01/07 12:52:07;;;;;;;68.07;9.43;;;;;;;;;;5074496;28;20337;-67
2022/01/07 12:54:34;;;;;;;66.68;9.50;;;;;;;;;;5074737;28;20232;-66
2022/01/07 12:57:01;;;;;;;69.93;10.68;;;;;;;;;;5074655;28;20221;-67
2022/01/07 12:59:29;;;;;;;68.25;10.20;;;;;;;;;;5073601;28;20324;-67
2022/01/07 13:01:58;;;;;;;68.32;11.77;;;;;;;;;;5056427;28;20227;-67
2022/01/07 13:04:25;;;;;;;70.13;12.15;;;;;;;;;;5053315;28;20238;-67
2022/01/07 13:06:53;;;;;;;69.22;9.88;;;;;;;;;;5053829;28;20705;-66
2022/01/07 13:09:21;;;;;;;69.47;10.15;;;;;;;;;;5054171;28;20209;-67
2022/01/07 13:11:49;;;;;;;71.25;11.50;;;;;;;;;;5053691;28;20229;-66
2022/01/07 13:14:17;;;;;;;72.97;11.73;;;;;;;;;;5053768;28;20210;-67
2022/01/07 13:16:44;;;;;;;74.37;10.80;;;;;;;;;;5053494;28;20293;-66
2022/01/07 13:19:14;;;;;;;69.28;10.10;;;;;;;;;;5052934;28;21087;-67
2022/01/07 13:21:42;;;;;;;66.03;8.02;;;;;;;;;;5053367;28;20236;-66
2022/01/07 13:24:13;;;;;;;63.95;7.80;;;;;;;;;;5053127;28;20213;-67
2022/01/07 13:26:40;;;;;;;65.95;7.45;;;;;;;;;;5054826;28;20297;-66
2022/01/07 13:29:17;;;;;;;64.07;8.27;;;;;;;;;;5054661;28;20228;-67
2022/01/07 13:31:46;;;;;;;67.03;7.97;;;;;;;;;;5054154;28;20318;-66
2022/01/07 13:34:21;;;;;;;65.65;7.35;;;;;;;;;;5054584;28;20444;-66
2022/01/07 13:36:49;;;;;;;62.55;6.68;;;;;;;;;;5055537;28;20209;-66
2022/01/07 13:39:17;;;;;;;65.75;6.70;;;;;;;;;;5072835;28;20218;-67
2022/01/07 13:41:55;;;;;;;65.10;7.43;;;;;;;;;;5074687;28;20712;-66
2022/01/07 13:44:22;;;;;;;64.65;8.15;;;;;;;;;;5074542;28;20215;-66
2022/01/07 13:46:53;;;;;;;66.53;7.80;;;;;;;;;;5075129;28;20210;-66
2022/01/07 13:49:22;;;;;;;65.50;7.68;;;;;;;;;;5074830;28;20560;-67
2022/01/07 13:51:55;;;;;;;67.32;7.45;;;;;;;;;;5075206;28;20660;-65
2022/01/07 13:54:25;;;;;;;68.85;8.48;;;;;;;;;;5067963;28;20198;-66
2022/01/07 13:56:57;;;;;;;65.38;8.15;;;;;;;;;;5054390;28;20737;-67
2022/01/07 13:59:25;;;;;;;63.22;7.50;;;;;;;;;;5058163;28;20264;-65
2022/01/07 14:01:56;;;;;;;64.90;7.50;;;;;;;;;;5055975;28;20228;-65
2022/01/07 14:04:38;;;;;;;65.03;7.28;;;;;;;;;;5053535;28;20297;-67
2022/01/07 14:10:07;;;;;;;64.00;6.97;;;;;;;;;;5130564;27;20511;-65
2022/01/07 14:12:35;;;;;;;64.97;7.97;;;;;;;;;;5131040;28;20222;-65
2022/01/07 14:15:08;;;;;;;67.85;8.50;;;;;;;;;;5131583;27;20204;-66
2022/01/07 14:17:35;;;;;;;67.90;7.50;;;;;;;;;;5131469;27;20235;-68
2022/01/07 14:20:04;;;;;;;64.88;6.65;;;;;;;;;;5130877;27;20267;-67
2022/01/07 14:22:31;;;;;;;62.30;6.90;;;;;;;;;;5133395;27;20873;-67
2022/01/07 14:24:59;;;;;;;63.63;7.57;;;;;;;;;;5131435;27;20437;-65
2022/01/07 14:27:29;;;;;;;62.63;7.80;;;;;;;;;;5131812;27;20239;-66
2022/01/07 14:29:56;;;;;;;63.28;6.32;;;;;;;;;;5131862;27;20270;-67
2022/01/07 14:32:25;;;;;;;62.72;6.70;;;;;;;;;;5131969;27;20737;-67
2022/01/07 14:34:55;;;;;;;66.20;7.00;;;;;;;;;;5130123;27;20203;-68
2022/01/07 14:37:23;;;;;;;63.85;6.20;;;;;;;;;;5129881;27;20208;-66
2022/01/07 14:39:50;;;;;;;62.75;6.07;;;;;;;;;;5131687;27;20208;-65